sensor_id;sensor_type;location;lat;lon;timestamp;P1;durP1;ratioP1;P2;durP2;ratioP2
69569;SDS011;56781;42.292;23.146;2023-12-20T00:00:31;69.75;;;14.65;;
69569;SDS011;56781;42.292;23.146;2023-12-20T00:03:00;55.72;;;13.15;;
69569;SDS011;56781;42.292;23.146;2023-12-20T00:05:29;50.85;;;12.68;;
69569;SDS011;56781;42.292;23.146;2023-12-20T00:07:58;54.90;;;13.23;;
69569;SDS011;56781;42.292;23.146;2023-12-20T00:10:29;75.17;;;14.03;;
69569;SDS011;56781;42.292;23.146;2023-12-20T00:12:58;44.33;;;14.05;;
69569;SDS011;56781;42.292;23.146;2023-12-20T00:15:26;73.88;;;15.55;;
69569;SDS011;56781;42.292;23.146;2023-12-20T00:17:55;77.82;;;14.48;;
69569;SDS011;56781;42.292;23.146;2023-12-20T00:20:24;79.28;;;14.23;;
69569;SDS011;56781;42.292;23.146;2023-12-20T00:22:52;54.80;;;13.37;;
69569;SDS011;56781;42.292;23.146;2023-12-20T00:25:21;49.33;;;13.60;;
69569;SDS011;56781;42.292;23.146;2023-12-20T00:27:51;50.65;;;13.88;;
69569;SDS011;56781;42.292;23.146;2023-12-20T00:30:20;50.15;;;13.40;;
69569;SDS011;56781;42.292;23.146;2023-12-20T00:32:49;51.10;;;13.30;;
69569;SDS011;56781;42.292;23.146;2023-12-20T00:35:18;49.97;;;14.73;;
69569;SDS011;56781;42.292;23.146;2023-12-20T00:37:47;73.50;;;13.75;;
69569;SDS011;56781;42.292;23.146;2023-12-20T00:40:15;41.83;;;13.38;;
69569;SDS011;56781;42.292;23.146;2023-12-20T00:42:44;49.65;;;12.98;;
69569;SDS011;56781;42.292;23.146;2023-12-20T00:45:15;59.25;;;13.32;;
69569;SDS011;56781;42.292;23.146;2023-12-20T00:47:43;57.67;;;13.83;;
69569;SDS011;56781;42.292;23.146;2023-12-20T00:50:13;55.88;;;12.38;;
69569;SDS011;56781;42.292;23.146;2023-12-20T00:52:42;44.72;;;12.02;;
69569;SDS011;56781;42.292;23.146;2023-12-20T00:55:11;38.88;;;11.80;;
69569;SDS011;56781;42.292;23.146;2023-12-20T00:57:40;45.67;;;13.90;;
69569;SDS011;56781;42.292;23.146;2023-12-20T01:00:09;53.80;;;13.47;;
69569;SDS011;56781;42.292;23.146;2023-12-20T01:02:41;52.28;;;13.80;;
69569;SDS011;56781;42.292;23.146;2023-12-20T01:05:10;44.97;;;13.75;;
69569;SDS011;56781;42.292;23.146;2023-12-20T01:07:39;50.78;;;14.90;;
69569;SDS011;56781;42.292;23.146;2023-12-20T01:10:08;56.50;;;16.40;;
69569;SDS011;56781;42.292;23.146;2023-12-20T01:12:37;64.70;;;13.93;;
69569;SDS011;56781;42.292;23.146;2023-12-20T01:15:06;81.38;;;13.82;;
69569;SDS011;56781;42.292;23.146;2023-12-20T01:17:35;52.55;;;13.82;;
69569;SDS011;56781;42.292;23.146;2023-12-20T01:20:07;41.45;;;12.65;;
69569;SDS011;56781;42.292;23.146;2023-12-20T01:22:37;59.25;;;12.73;;
69569;SDS011;56781;42.292;23.146;2023-12-20T01:25:06;76.57;;;14.17;;
69569;SDS011;56781;42.292;23.146;2023-12-20T01:27:35;52.15;;;12.48;;
69569;SDS011;56781;42.292;23.146;2023-12-20T01:30:04;79.47;;;13.00;;
69569;SDS011;56781;42.292;23.146;2023-12-20T01:32:33;65.22;;;12.05;;
69569;SDS011;56781;42.292;23.146;2023-12-20T01:35:03;55.88;;;11.57;;
69569;SDS011;56781;42.292;23.146;2023-12-20T01:37:34;75.60;;;12.20;;
69569;SDS011;56781;42.292;23.146;2023-12-20T01:40:03;62.30;;;12.10;;
69569;SDS011;56781;42.292;23.146;2023-12-20T01:42:32;97.82;;;12.65;;
69569;SDS011;56781;42.292;23.146;2023-12-20T01:45:01;121.97;;;14.75;;
69569;SDS011;56781;42.292;23.146;2023-12-20T01:47:30;73.28;;;13.18;;
69569;SDS011;56781;42.292;23.146;2023-12-20T01:49:59;68.80;;;13.60;;
69569;SDS011;56781;42.292;23.146;2023-12-20T01:52:30;81.25;;;12.95;;
69569;SDS011;56781;42.292;23.146;2023-12-20T01:55:02;96.15;;;14.40;;
69569;SDS011;56781;42.292;23.146;2023-12-20T01:57:40;92.00;;;15.90;;
69569;SDS011;56781;42.292;23.146;2023-12-20T02:00:10;106.38;;;15.00;;
69569;SDS011;56781;42.292;23.146;2023-12-20T02:02:41;117.80;;;16.37;;
69569;SDS011;56781;42.292;23.146;2023-12-20T02:05:11;40.70;;;11.45;;
69569;SDS011;56781;42.292;23.146;2023-12-20T02:07:41;63.58;;;12.30;;
69569;SDS011;56781;42.292;23.146;2023-12-20T02:10:12;67.53;;;12.00;;
69569;SDS011;56781;42.292;23.146;2023-12-20T02:12:41;102.45;;;13.20;;
69569;SDS011;56781;42.292;23.146;2023-12-20T02:15:10;125.40;;;13.27;;
69569;SDS011;56781;42.292;23.146;2023-12-20T02:17:39;82.78;;;12.02;;
69569;SDS011;56781;42.292;23.146;2023-12-20T02:20:08;59.13;;;13.60;;
69569;SDS011;56781;42.292;23.146;2023-12-20T02:22:39;94.10;;;12.73;;
69569;SDS011;56781;42.292;23.146;2023-12-20T02:25:08;55.15;;;10.55;;
69569;SDS011;56781;42.292;23.146;2023-12-20T02:27:37;41.87;;;10.30;;
69569;SDS011;56781;42.292;23.146;2023-12-20T02:30:07;46.65;;;11.63;;
69569;SDS011;56781;42.292;23.146;2023-12-20T02:32:37;30.27;;;9.38;;
69569;SDS011;56781;42.292;23.146;2023-12-20T02:35:06;53.88;;;10.10;;
69569;SDS011;56781;42.292;23.146;2023-12-20T02:37:35;48.83;;;12.43;;
69569;SDS011;56781;42.292;23.146;2023-12-20T02:40:06;60.57;;;14.33;;
69569;SDS011;56781;42.292;23.146;2023-12-20T02:42:36;73.25;;;12.65;;
69569;SDS011;56781;42.292;23.146;2023-12-20T02:45:05;64.18;;;12.55;;
69569;SDS011;56781;42.292;23.146;2023-12-20T02:47:34;46.55;;;11.85;;
69569;SDS011;56781;42.292;23.146;2023-12-20T02:50:03;40.60;;;13.05;;
69569;SDS011;56781;42.292;23.146;2023-12-20T02:52:32;100.30;;;15.93;;
69569;SDS011;56781;42.292;23.146;2023-12-20T02:55:01;55.35;;;13.38;;
69569;SDS011;56781;42.292;23.146;2023-12-20T02:57:31;74.03;;;13.55;;
69569;SDS011;56781;42.292;23.146;2023-12-20T03:00:03;84.72;;;14.10;;
69569;SDS011;56781;42.292;23.146;2023-12-20T03:02:32;48.05;;;14.15;;
69569;SDS011;56781;42.292;23.146;2023-12-20T03:05:01;60.67;;;16.37;;
69569;SDS011;56781;42.292;23.146;2023-12-20T03:07:30;81.45;;;15.68;;
69569;SDS011;56781;42.292;23.146;2023-12-20T03:09:59;54.60;;;14.32;;
69569;SDS011;56781;42.292;23.146;2023-12-20T03:12:47;44.03;;;13.98;;
69569;SDS011;56781;42.292;23.146;2023-12-20T03:15:16;34.33;;;12.50;;
69569;SDS011;56781;42.292;23.146;2023-12-20T03:17:45;45.80;;;13.37;;
69569;SDS011;56781;42.292;23.146;2023-12-20T03:20:14;34.20;;;13.20;;
69569;SDS011;56781;42.292;23.146;2023-12-20T03:22:43;43.75;;;11.80;;
69569;SDS011;56781;42.292;23.146;2023-12-20T03:25:12;43.13;;;12.55;;
69569;SDS011;56781;42.292;23.146;2023-12-20T03:27:41;55.33;;;13.55;;
69569;SDS011;56781;42.292;23.146;2023-12-20T03:30:12;80.00;;;14.60;;
69569;SDS011;56781;42.292;23.146;2023-12-20T03:32:41;54.35;;;13.93;;
69569;SDS011;56781;42.292;23.146;2023-12-20T03:35:10;57.13;;;12.70;;
69569;SDS011;56781;42.292;23.146;2023-12-20T03:37:39;41.83;;;12.55;;
69569;SDS011;56781;42.292;23.146;2023-12-20T03:40:08;42.80;;;13.93;;
69569;SDS011;56781;42.292;23.146;2023-12-20T03:42:37;54.90;;;17.03;;
69569;SDS011;56781;42.292;23.146;2023-12-20T03:45:07;40.08;;;12.18;;
69569;SDS011;56781;42.292;23.146;2023-12-20T03:47:37;37.80;;;12.57;;
69569;SDS011;56781;42.292;23.146;2023-12-20T03:50:06;37.78;;;11.27;;
69569;SDS011;56781;42.292;23.146;2023-12-20T03:52:36;36.78;;;10.95;;
69569;SDS011;56781;42.292;23.146;2023-12-20T03:55:05;41.70;;;11.93;;
69569;SDS011;56781;42.292;23.146;2023-12-20T03:57:34;61.20;;;12.80;;
69569;SDS011;56781;42.292;23.146;2023-12-20T04:00:03;48.95;;;12.20;;
69569;SDS011;56781;42.292;23.146;2023-12-20T04:02:38;38.00;;;11.02;;
69569;SDS011;56781;42.292;23.146;2023-12-20T04:05:07;37.75;;;11.63;;
69569;SDS011;56781;42.292;23.146;2023-12-20T04:07:37;34.43;;;12.13;;
69569;SDS011;56781;42.292;23.146;2023-12-20T04:10:07;26.48;;;10.88;;
69569;SDS011;56781;42.292;23.146;2023-12-20T04:12:36;48.70;;;14.73;;
69569;SDS011;56781;42.292;23.146;2023-12-20T04:15:05;49.00;;;12.25;;
69569;SDS011;56781;42.292;23.146;2023-12-20T04:17:38;58.05;;;18.80;;
69569;SDS011;56781;42.292;23.146;2023-12-20T04:20:07;64.60;;;13.80;;
69569;SDS011;56781;42.292;23.146;2023-12-20T04:22:36;48.08;;;13.85;;
69569;SDS011;56781;42.292;23.146;2023-12-20T04:25:05;42.08;;;11.05;;
69569;SDS011;56781;42.292;23.146;2023-12-20T04:27:34;30.60;;;10.98;;
69569;SDS011;56781;42.292;23.146;2023-12-20T04:30:03;31.77;;;9.80;;
69569;SDS011;56781;42.292;23.146;2023-12-20T04:32:33;41.63;;;10.80;;
69569;SDS011;56781;42.292;23.146;2023-12-20T04:35:02;22.40;;;8.60;;
69569;SDS011;56781;42.292;23.146;2023-12-20T04:37:31;42.10;;;11.00;;
69569;SDS011;56781;42.292;23.146;2023-12-20T04:40:00;45.80;;;10.93;;
69569;SDS011;56781;42.292;23.146;2023-12-20T04:42:28;30.30;;;9.88;;
69569;SDS011;56781;42.292;23.146;2023-12-20T04:44:57;29.67;;;9.47;;
69569;SDS011;56781;42.292;23.146;2023-12-20T04:47:26;48.03;;;10.30;;
69569;SDS011;56781;42.292;23.146;2023-12-20T04:49:55;30.33;;;9.32;;
69569;SDS011;56781;42.292;23.146;2023-12-20T04:52:25;31.58;;;9.23;;
69569;SDS011;56781;42.292;23.146;2023-12-20T04:54:54;41.80;;;9.88;;
69569;SDS011;56781;42.292;23.146;2023-12-20T04:57:22;40.30;;;9.20;;
69569;SDS011;56781;42.292;23.146;2023-12-20T04:59:51;37.67;;;9.95;;
69569;SDS011;56781;42.292;23.146;2023-12-20T05:02:20;37.55;;;10.82;;
69569;SDS011;56781;42.292;23.146;2023-12-20T05:04:48;46.97;;;11.70;;
69569;SDS011;56781;42.292;23.146;2023-12-20T05:07:21;37.35;;;10.68;;
69569;SDS011;56781;42.292;23.146;2023-12-20T05:09:52;37.27;;;9.83;;
69569;SDS011;56781;42.292;23.146;2023-12-20T05:12:20;50.55;;;10.80;;
69569;SDS011;56781;42.292;23.146;2023-12-20T05:14:49;42.78;;;12.82;;
69569;SDS011;56781;42.292;23.146;2023-12-20T05:17:19;77.93;;;17.38;;
69569;SDS011;56781;42.292;23.146;2023-12-20T05:19:47;74.13;;;19.58;;
69569;SDS011;56781;42.292;23.146;2023-12-20T05:22:16;70.80;;;14.60;;
69569;SDS011;56781;42.292;23.146;2023-12-20T05:24:45;59.38;;;12.65;;
69569;SDS011;56781;42.292;23.146;2023-12-20T05:27:15;60.28;;;12.73;;
69569;SDS011;56781;42.292;23.146;2023-12-20T05:29:44;63.70;;;12.52;;
69569;SDS011;56781;42.292;23.146;2023-12-20T05:32:13;52.50;;;15.05;;
69569;SDS011;56781;42.292;23.146;2023-12-20T05:34:41;57.03;;;14.47;;
69569;SDS011;56781;42.292;23.146;2023-12-20T05:37:10;44.58;;;12.13;;
69569;SDS011;56781;42.292;23.146;2023-12-20T05:39:38;60.50;;;13.00;;
69569;SDS011;56781;42.292;23.146;2023-12-20T05:42:07;71.43;;;13.77;;
69569;SDS011;56781;42.292;23.146;2023-12-20T05:44:38;53.72;;;13.88;;
69569;SDS011;56781;42.292;23.146;2023-12-20T05:47:06;66.00;;;13.70;;
69569;SDS011;56781;42.292;23.146;2023-12-20T05:49:35;62.42;;;12.70;;
69569;SDS011;56781;42.292;23.146;2023-12-20T05:52:04;55.80;;;13.02;;
69569;SDS011;56781;42.292;23.146;2023-12-20T05:54:33;40.83;;;12.43;;
69569;SDS011;56781;42.292;23.146;2023-12-20T05:57:02;59.15;;;13.07;;
69569;SDS011;56781;42.292;23.146;2023-12-20T05:59:31;40.17;;;13.40;;
69569;SDS011;56781;42.292;23.146;2023-12-20T06:02:02;30.08;;;9.82;;
69569;SDS011;56781;42.292;23.146;2023-12-20T06:04:31;46.00;;;10.90;;
69569;SDS011;56781;42.292;23.146;2023-12-20T06:07:01;38.47;;;10.73;;
69569;SDS011;56781;42.292;23.146;2023-12-20T06:09:30;50.85;;;12.23;;
69569;SDS011;56781;42.292;23.146;2023-12-20T06:11:59;60.23;;;13.83;;
69569;SDS011;56781;42.292;23.146;2023-12-20T06:14:28;67.55;;;14.63;;
69569;SDS011;56781;42.292;23.146;2023-12-20T06:16:57;43.92;;;10.48;;
69569;SDS011;56781;42.292;23.146;2023-12-20T06:19:28;99.25;;;13.63;;
69569;SDS011;56781;42.292;23.146;2023-12-20T06:21:57;53.22;;;12.48;;
69569;SDS011;56781;42.292;23.146;2023-12-20T06:24:26;62.77;;;12.07;;
69569;SDS011;56781;42.292;23.146;2023-12-20T06:26:55;59.08;;;12.57;;
69569;SDS011;56781;42.292;23.146;2023-12-20T06:29:23;72.13;;;15.75;;
69569;SDS011;56781;42.292;23.146;2023-12-20T06:31:52;115.03;;;21.42;;
69569;SDS011;56781;42.292;23.146;2023-12-20T06:34:21;86.82;;;25.00;;
69569;SDS011;56781;42.292;23.146;2023-12-20T06:36:51;72.60;;;16.50;;
69569;SDS011;56781;42.292;23.146;2023-12-20T06:39:20;69.90;;;16.85;;
69569;SDS011;56781;42.292;23.146;2023-12-20T06:41:49;46.17;;;14.18;;
69569;SDS011;56781;42.292;23.146;2023-12-20T06:44:18;57.63;;;19.30;;
69569;SDS011;56781;42.292;23.146;2023-12-20T06:46:47;57.97;;;19.10;;
69569;SDS011;56781;42.292;23.146;2023-12-20T06:49:15;47.97;;;13.57;;
69569;SDS011;56781;42.292;23.146;2023-12-20T06:51:45;50.72;;;12.15;;
69569;SDS011;56781;42.292;23.146;2023-12-20T06:54:18;39.28;;;11.73;;
69569;SDS011;56781;42.292;23.146;2023-12-20T06:56:46;52.25;;;12.63;;
69569;SDS011;56781;42.292;23.146;2023-12-20T06:59:15;64.55;;;13.00;;
69569;SDS011;56781;42.292;23.146;2023-12-20T07:01:47;85.53;;;14.90;;
69569;SDS011;56781;42.292;23.146;2023-12-20T07:04:16;70.15;;;14.57;;
69569;SDS011;56781;42.292;23.146;2023-12-20T07:06:48;60.38;;;13.70;;
69569;SDS011;56781;42.292;23.146;2023-12-20T07:09:21;103.57;;;20.70;;
69569;SDS011;56781;42.292;23.146;2023-12-20T07:11:50;67.00;;;17.42;;
69569;SDS011;56781;42.292;23.146;2023-12-20T07:14:18;78.37;;;16.97;;
69569;SDS011;56781;42.292;23.146;2023-12-20T07:16:47;68.10;;;15.85;;
69569;SDS011;56781;42.292;23.146;2023-12-20T07:19:16;61.85;;;15.13;;
69569;SDS011;56781;42.292;23.146;2023-12-20T07:21:44;83.55;;;23.23;;
69569;SDS011;56781;42.292;23.146;2023-12-20T07:24:13;78.50;;;17.40;;
69569;SDS011;56781;42.292;23.146;2023-12-20T07:26:43;82.80;;;17.33;;
69569;SDS011;56781;42.292;23.146;2023-12-20T07:29:12;88.82;;;21.77;;
69569;SDS011;56781;42.292;23.146;2023-12-20T07:31:41;56.08;;;18.30;;
69569;SDS011;56781;42.292;23.146;2023-12-20T07:34:09;69.78;;;18.15;;
69569;SDS011;56781;42.292;23.146;2023-12-20T07:36:38;40.58;;;16.10;;
69569;SDS011;56781;42.292;23.146;2023-12-20T07:39:07;59.93;;;16.60;;
69569;SDS011;56781;42.292;23.146;2023-12-20T07:41:36;95.15;;;20.55;;
69569;SDS011;56781;42.292;23.146;2023-12-20T07:44:07;62.28;;;17.75;;
69569;SDS011;56781;42.292;23.146;2023-12-20T07:46:36;113.10;;;22.10;;
69569;SDS011;56781;42.292;23.146;2023-12-20T07:49:04;64.63;;;18.45;;
69569;SDS011;56781;42.292;23.146;2023-12-20T07:51:35;75.63;;;16.73;;
69569;SDS011;56781;42.292;23.146;2023-12-20T07:54:04;58.65;;;15.80;;
69569;SDS011;56781;42.292;23.146;2023-12-20T07:56:34;45.38;;;13.68;;
69569;SDS011;56781;42.292;23.146;2023-12-20T07:59:03;72.07;;;16.95;;
69569;SDS011;56781;42.292;23.146;2023-12-20T08:01:39;74.47;;;20.55;;
69569;SDS011;56781;42.292;23.146;2023-12-20T08:04:09;65.77;;;18.83;;
69569;SDS011;56781;42.292;23.146;2023-12-20T08:06:38;66.75;;;19.50;;
69569;SDS011;56781;42.292;23.146;2023-12-20T08:09:06;51.42;;;17.25;;
69569;SDS011;56781;42.292;23.146;2023-12-20T08:11:35;58.10;;;19.63;;
69569;SDS011;56781;42.292;23.146;2023-12-20T08:14:04;44.58;;;14.13;;
69569;SDS011;56781;42.292;23.146;2023-12-20T08:16:33;41.67;;;15.23;;
69569;SDS011;56781;42.292;23.146;2023-12-20T08:19:04;59.67;;;17.75;;
69569;SDS011;56781;42.292;23.146;2023-12-20T08:21:33;54.75;;;17.60;;
69569;SDS011;56781;42.292;23.146;2023-12-20T08:24:04;56.90;;;17.60;;
69569;SDS011;56781;42.292;23.146;2023-12-20T08:26:34;49.95;;;17.27;;
69569;SDS011;56781;42.292;23.146;2023-12-20T08:29:02;59.70;;;19.20;;
69569;SDS011;56781;42.292;23.146;2023-12-20T08:31:31;56.95;;;20.77;;
69569;SDS011;56781;42.292;23.146;2023-12-20T08:34:01;83.57;;;34.30;;
69569;SDS011;56781;42.292;23.146;2023-12-20T08:36:34;77.90;;;26.52;;
69569;SDS011;56781;42.292;23.146;2023-12-20T08:39:03;83.20;;;24.50;;
69569;SDS011;56781;42.292;23.146;2023-12-20T08:41:34;67.23;;;22.57;;
69569;SDS011;56781;42.292;23.146;2023-12-20T08:44:04;65.10;;;21.85;;
69569;SDS011;56781;42.292;23.146;2023-12-20T08:46:32;66.55;;;20.92;;
69569;SDS011;56781;42.292;23.146;2023-12-20T08:49:01;63.67;;;23.10;;
69569;SDS011;56781;42.292;23.146;2023-12-20T08:51:31;77.35;;;32.28;;
69569;SDS011;56781;42.292;23.146;2023-12-20T08:54:02;57.03;;;22.73;;
69569;SDS011;56781;42.292;23.146;2023-12-20T08:56:34;67.00;;;23.77;;
69569;SDS011;56781;42.292;23.146;2023-12-20T08:59:03;50.55;;;18.23;;
69569;SDS011;56781;42.292;23.146;2023-12-20T09:01:31;54.20;;;19.60;;
69569;SDS011;56781;42.292;23.146;2023-12-20T09:04:00;52.45;;;18.35;;
69569;SDS011;56781;42.292;23.146;2023-12-20T09:06:29;47.33;;;17.17;;
69569;SDS011;56781;42.292;23.146;2023-12-20T09:08:58;42.03;;;16.63;;
69569;SDS011;56781;42.292;23.146;2023-12-20T09:11:28;41.95;;;17.02;;
69569;SDS011;56781;42.292;23.146;2023-12-20T09:13:57;45.15;;;16.58;;
69569;SDS011;56781;42.292;23.146;2023-12-20T09:16:26;52.22;;;18.30;;
69569;SDS011;56781;42.292;23.146;2023-12-20T09:18:55;57.10;;;18.90;;
69569;SDS011;56781;42.292;23.146;2023-12-20T09:21:24;46.15;;;17.15;;
69569;SDS011;56781;42.292;23.146;2023-12-20T09:23:52;49.63;;;18.58;;
69569;SDS011;56781;42.292;23.146;2023-12-20T09:26:21;52.17;;;17.63;;
69569;SDS011;56781;42.292;23.146;2023-12-20T09:28:51;52.35;;;18.38;;
69569;SDS011;56781;42.292;23.146;2023-12-20T09:31:20;57.53;;;20.27;;
69569;SDS011;56781;42.292;23.146;2023-12-20T09:33:49;50.53;;;19.42;;
69569;SDS011;56781;42.292;23.146;2023-12-20T09:36:18;96.47;;;30.73;;
69569;SDS011;56781;42.292;23.146;2023-12-20T09:38:47;41.03;;;15.95;;
69569;SDS011;56781;42.292;23.146;2023-12-20T09:41:16;53.13;;;20.10;;
69569;SDS011;56781;42.292;23.146;2023-12-20T09:43:44;51.20;;;18.00;;
69569;SDS011;56781;42.292;23.146;2023-12-20T09:46:15;49.80;;;17.77;;
69569;SDS011;56781;42.292;23.146;2023-12-20T09:48:49;58.45;;;22.00;;
69569;SDS011;56781;42.292;23.146;2023-12-20T09:51:19;56.08;;;19.60;;
69569;SDS011;56781;42.292;23.146;2023-12-20T09:53:49;57.75;;;22.08;;
69569;SDS011;56781;42.292;23.146;2023-12-20T09:56:21;50.23;;;20.60;;
69569;SDS011;56781;42.292;23.146;2023-12-20T09:58:50;51.13;;;19.38;;
69569;SDS011;56781;42.292;23.146;2023-12-20T10:01:20;53.72;;;19.60;;
69569;SDS011;56781;42.292;23.146;2023-12-20T10:03:50;54.20;;;20.92;;
69569;SDS011;56781;42.292;23.146;2023-12-20T10:06:20;62.45;;;23.02;;
69569;SDS011;56781;42.292;23.146;2023-12-20T10:08:49;64.83;;;22.93;;
69569;SDS011;56781;42.292;23.146;2023-12-20T10:11:17;52.65;;;21.50;;
69569;SDS011;56781;42.292;23.146;2023-12-20T10:13:47;60.53;;;21.48;;
69569;SDS011;56781;42.292;23.146;2023-12-20T10:16:16;67.45;;;28.08;;
69569;SDS011;56781;42.292;23.146;2023-12-20T10:18:46;56.95;;;22.85;;
69569;SDS011;56781;42.292;23.146;2023-12-20T10:21:15;55.40;;;21.50;;
69569;SDS011;56781;42.292;23.146;2023-12-20T10:23:45;54.95;;;22.00;;
69569;SDS011;56781;42.292;23.146;2023-12-20T10:26:19;55.38;;;22.15;;
69569;SDS011;56781;42.292;23.146;2023-12-20T10:28:50;54.33;;;22.17;;
69569;SDS011;56781;42.292;23.146;2023-12-20T10:31:29;54.30;;;21.30;;
69569;SDS011;56781;42.292;23.146;2023-12-20T10:34:01;52.23;;;21.73;;
69569;SDS011;56781;42.292;23.146;2023-12-20T10:36:31;65.32;;;23.15;;
69569;SDS011;56781;42.292;23.146;2023-12-20T10:39:03;55.88;;;23.25;;
69569;SDS011;56781;42.292;23.146;2023-12-20T10:41:35;60.13;;;24.52;;
69569;SDS011;56781;42.292;23.146;2023-12-20T10:44:08;68.78;;;26.10;;
69569;SDS011;56781;42.292;23.146;2023-12-20T10:46:38;60.97;;;24.37;;
69569;SDS011;56781;42.292;23.146;2023-12-20T10:49:16;70.78;;;25.50;;
69569;SDS011;56781;42.292;23.146;2023-12-20T10:51:46;82.88;;;35.10;;
69569;SDS011;56781;42.292;23.146;2023-12-20T10:54:15;77.40;;;29.92;;
69569;SDS011;56781;42.292;23.146;2023-12-20T10:56:44;65.88;;;26.02;;
69569;SDS011;56781;42.292;23.146;2023-12-20T10:59:13;73.73;;;28.47;;
69569;SDS011;56781;42.292;23.146;2023-12-20T11:01:48;78.95;;;29.50;;
69569;SDS011;56781;42.292;23.146;2023-12-20T11:04:20;77.40;;;29.83;;
69569;SDS011;56781;42.292;23.146;2023-12-20T11:06:54;74.60;;;28.27;;
69569;SDS011;56781;42.292;23.146;2023-12-20T11:09:31;79.82;;;29.90;;
69569;SDS011;56781;42.292;23.146;2023-12-20T11:12:05;80.13;;;32.17;;
69569;SDS011;56781;42.292;23.146;2023-12-20T11:14:41;66.95;;;27.77;;
69569;SDS011;56781;42.292;23.146;2023-12-20T11:17:14;70.15;;;26.63;;
69569;SDS011;56781;42.292;23.146;2023-12-20T11:22:39;64.15;;;26.00;;
69569;SDS011;56781;42.292;23.146;2023-12-20T11:25:20;61.17;;;24.90;;
69569;SDS011;56781;42.292;23.146;2023-12-20T11:30:42;69.30;;;28.63;;
69569;SDS011;56781;42.292;23.146;2023-12-20T11:33:14;68.55;;;27.48;;
69569;SDS011;56781;42.292;23.146;2023-12-20T11:35:46;78.18;;;31.48;;
69569;SDS011;56781;42.292;23.146;2023-12-20T11:38:15;60.33;;;25.63;;
69569;SDS011;56781;42.292;23.146;2023-12-20T11:40:44;63.97;;;26.55;;
69569;SDS011;56781;42.292;23.146;2023-12-20T11:43:12;79.35;;;36.35;;
69569;SDS011;56781;42.292;23.146;2023-12-20T11:46:02;76.68;;;30.45;;
69569;SDS011;56781;42.292;23.146;2023-12-20T11:48:34;62.42;;;25.90;;
69569;SDS011;56781;42.292;23.146;2023-12-20T11:51:10;55.80;;;22.20;;
69569;SDS011;56781;42.292;23.146;2023-12-20T11:53:39;78.47;;;34.10;;
69569;SDS011;56781;42.292;23.146;2023-12-20T11:56:09;53.50;;;22.88;;
69569;SDS011;56781;42.292;23.146;2023-12-20T11:58:39;56.17;;;25.40;;
69569;SDS011;56781;42.292;23.146;2023-12-20T12:01:08;66.00;;;28.67;;
69569;SDS011;56781;42.292;23.146;2023-12-20T12:03:37;62.43;;;26.33;;
69569;SDS011;56781;42.292;23.146;2023-12-20T12:06:06;59.95;;;27.60;;
69569;SDS011;56781;42.292;23.146;2023-12-20T12:08:36;54.10;;;23.50;;
69569;SDS011;56781;42.292;23.146;2023-12-20T12:11:05;59.80;;;27.13;;
69569;SDS011;56781;42.292;23.146;2023-12-20T12:13:34;54.72;;;23.55;;
69569;SDS011;56781;42.292;23.146;2023-12-20T12:16:04;50.13;;;22.67;;
69569;SDS011;56781;42.292;23.146;2023-12-20T12:18:33;51.20;;;21.05;;
69569;SDS011;56781;42.292;23.146;2023-12-20T12:21:02;46.75;;;20.95;;
69569;SDS011;56781;42.292;23.146;2023-12-20T12:23:42;41.80;;;18.58;;
69569;SDS011;56781;42.292;23.146;2023-12-20T12:26:11;43.47;;;18.30;;
69569;SDS011;56781;42.292;23.146;2023-12-20T12:28:40;56.60;;;26.73;;
69569;SDS011;56781;42.292;23.146;2023-12-20T12:31:12;47.88;;;22.35;;
69569;SDS011;56781;42.292;23.146;2023-12-20T12:33:42;42.08;;;18.27;;
69569;SDS011;56781;42.292;23.146;2023-12-20T12:36:12;42.95;;;20.00;;
69569;SDS011;56781;42.292;23.146;2023-12-20T12:38:44;49.25;;;23.00;;
69569;SDS011;56781;42.292;23.146;2023-12-20T12:41:13;46.93;;;20.83;;
69569;SDS011;56781;42.292;23.146;2023-12-20T12:43:42;42.85;;;18.98;;
69569;SDS011;56781;42.292;23.146;2023-12-20T12:46:11;40.33;;;19.70;;
69569;SDS011;56781;42.292;23.146;2023-12-20T12:48:39;42.38;;;19.02;;
69569;SDS011;56781;42.292;23.146;2023-12-20T12:51:12;45.55;;;21.52;;
69569;SDS011;56781;42.292;23.146;2023-12-20T12:53:40;45.43;;;19.47;;
69569;SDS011;56781;42.292;23.146;2023-12-20T12:56:11;43.22;;;20.27;;
69569;SDS011;56781;42.292;23.146;2023-12-20T12:58:41;60.15;;;29.58;;
69569;SDS011;56781;42.292;23.146;2023-12-20T13:01:10;55.53;;;26.10;;
69569;SDS011;56781;42.292;23.146;2023-12-20T13:03:39;57.50;;;26.67;;
69569;SDS011;56781;42.292;23.146;2023-12-20T13:06:08;69.47;;;35.70;;
69569;SDS011;56781;42.292;23.146;2023-12-20T13:08:37;58.67;;;27.05;;
69569;SDS011;56781;42.292;23.146;2023-12-20T13:11:06;67.63;;;29.67;;
69569;SDS011;56781;42.292;23.146;2023-12-20T13:13:36;66.40;;;28.40;;
69569;SDS011;56781;42.292;23.146;2023-12-20T13:16:05;72.10;;;29.40;;
69569;SDS011;56781;42.292;23.146;2023-12-20T13:18:34;65.93;;;29.17;;
69569;SDS011;56781;42.292;23.146;2023-12-20T13:21:03;61.58;;;29.95;;
69569;SDS011;56781;42.292;23.146;2023-12-20T13:23:32;73.18;;;30.38;;
69569;SDS011;56781;42.292;23.146;2023-12-20T13:26:05;73.82;;;32.03;;
69569;SDS011;56781;42.292;23.146;2023-12-20T13:28:36;76.55;;;31.88;;
69569;SDS011;56781;42.292;23.146;2023-12-20T13:31:05;76.33;;;36.17;;
69569;SDS011;56781;42.292;23.146;2023-12-20T13:33:34;84.68;;;36.90;;
69569;SDS011;56781;42.292;23.146;2023-12-20T13:36:04;76.13;;;32.80;;
69569;SDS011;56781;42.292;23.146;2023-12-20T13:38:33;65.25;;;28.45;;
69569;SDS011;56781;42.292;23.146;2023-12-20T13:41:02;61.85;;;27.67;;
69569;SDS011;56781;42.292;23.146;2023-12-20T13:43:31;53.13;;;23.17;;
69569;SDS011;56781;42.292;23.146;2023-12-20T13:46:01;43.42;;;19.77;;
69569;SDS011;56781;42.292;23.146;2023-12-20T13:48:30;49.40;;;22.02;;
69569;SDS011;56781;42.292;23.146;2023-12-20T13:50:59;46.33;;;19.73;;
69569;SDS011;56781;42.292;23.146;2023-12-20T13:53:29;47.45;;;20.38;;
69569;SDS011;56781;42.292;23.146;2023-12-20T13:55:57;48.27;;;21.07;;
69569;SDS011;56781;42.292;23.146;2023-12-20T13:58:26;56.55;;;23.70;;
69569;SDS011;56781;42.292;23.146;2023-12-20T14:00:55;76.32;;;33.10;;
69569;SDS011;56781;42.292;23.146;2023-12-20T14:03:26;51.03;;;22.92;;
69569;SDS011;56781;42.292;23.146;2023-12-20T14:05:55;47.00;;;21.77;;
69569;SDS011;56781;42.292;23.146;2023-12-20T14:08:24;48.63;;;22.37;;
69569;SDS011;56781;42.292;23.146;2023-12-20T14:10:53;71.53;;;30.60;;
69569;SDS011;56781;42.292;23.146;2023-12-20T14:13:22;112.30;;;44.35;;
69569;SDS011;56781;42.292;23.146;2023-12-20T14:15:51;108.82;;;41.67;;
69569;SDS011;56781;42.292;23.146;2023-12-20T14:18:21;109.90;;;42.63;;
69569;SDS011;56781;42.292;23.146;2023-12-20T14:20:51;110.20;;;43.37;;
69569;SDS011;56781;42.292;23.146;2023-12-20T14:23:20;112.20;;;42.65;;
69569;SDS011;56781;42.292;23.146;2023-12-20T14:25:49;109.35;;;40.85;;
69569;SDS011;56781;42.292;23.146;2023-12-20T14:28:19;100.35;;;40.25;;